Karachi Weather



Karachi's Current Weather

Temprature 35o few clouds

few clouds

Rain: 0 %

Min Temprature35o
Max Temprature35o
Humidity41
Wind Speed6.2 m/h
Sun Rise06:30:57
Sun Set18:03:01
Current Time: 18-Oct-2019 16:06:23
Lat/Lon: 24.87, 67.03




Karachi's Geo Location



Karachi's Weather Forecast

Time Overall Temp Min Temp Max Temp Humidity Wind Speed Rain
18-Oct-2019 (Fri)
17:00:00 clear sky 32.420 32.420 33.140 33 5.15 m/h 0 %
20:00:00 clear sky 28.840 28.840 29.380 56 3.27 m/h 0 %
23:00:00 clear sky 27.830 27.830 28.188 65 3.03 m/h 0 %
19-Oct-2019 (Sat)
02:00:00 clear sky 26.870 26.870 27.048 62 2.39 m/h 0 %
05:00:00 clear sky 25.573 25.573 25.573 65 1.4 m/h 0 %
08:00:00 clear sky 27.411 27.411 27.411 58 0.54 m/h 0 %
11:00:00 few clouds 33.710 33.710 33.710 20 4.35 m/h 0 %
14:00:00 few clouds 36.206 36.206 36.206 11 2.8 m/h 0 %
17:00:00 scattered clouds 35.742 35.742 35.742 12 1.93 m/h 0 %
20:00:00 clear sky 30.488 30.488 30.488 31 2.25 m/h 0 %
23:00:00 clear sky 29.337 29.337 29.337 34 2.61 m/h 0 %
20-Oct-2019 (Sun)
02:00:00 clear sky 27.677 27.677 27.677 36 0.93 m/h 0 %
05:00:00 clear sky 27.644 27.644 27.644 31 2.16 m/h 0 %
08:00:00 clear sky 30.062 30.062 30.062 23 1.77 m/h 0 %
11:00:00 clear sky 34.640 34.640 34.640 17 2.22 m/h 0 %
14:00:00 clear sky 36.502 36.502 36.502 14 1.74 m/h 0 %
17:00:00 clear sky 35.618 35.618 35.618 15 3.1 m/h 0 %
20:00:00 clear sky 31.462 31.462 31.462 27 3.36 m/h 0 %
23:00:00 clear sky 30.137 30.137 30.137 32 2.89 m/h 0 %
21-Oct-2019 (Mon)
02:00:00 clear sky 28.480 28.480 28.480 39 2.67 m/h 0 %
05:00:00 clear sky 27.391 27.391 27.391 41 1.99 m/h 0 %
08:00:00 clear sky 29.389 29.389 29.389 34 1.22 m/h 0 %
11:00:00 clear sky 33.377 33.377 33.377 22 1.51 m/h 0 %
14:00:00 clear sky 35.635 35.635 35.635 18 3.17 m/h 0 %
17:00:00 clear sky 33.274 33.274 33.274 25 5.42 m/h 0 %
20:00:00 clear sky 30.314 30.314 30.314 35 1.78 m/h 0 %
23:00:00 clear sky 28.810 28.810 28.810 47 2.7 m/h 0 %
22-Oct-2019 (Tue)
02:00:00 clear sky 27.476 27.476 27.476 59 2.54 m/h 0 %
05:00:00 clear sky 26.579 26.579 26.579 53 0.98 m/h 0 %
08:00:00 clear sky 28.482 28.482 28.482 45 1.47 m/h 0 %
11:00:00 clear sky 32.859 32.859 32.859 28 2.23 m/h 0 %
14:00:00 clear sky 34.879 34.879 34.879 22 4.63 m/h 0 %
17:00:00 clear sky 32.492 32.492 32.492 28 5.1 m/h 0 %
20:00:00 clear sky 29.250 29.250 29.250 43 3.78 m/h 0 %
23:00:00 clear sky 28.129 28.129 28.129 50 4.17 m/h 0 %
23-Oct-2019 (Wed)
02:00:00 clear sky 26.656 26.656 26.656 62 1.55 m/h 0 %
05:00:00 clear sky 25.967 25.967 25.967 60 2.53 m/h 0 %
08:00:00 clear sky 27.339 27.339 27.339 57 2.34 m/h 0 %
11:00:00 clear sky 32.275 32.275 32.275 34 4.11 m/h 0 %
14:00:00 clear sky 34.169 34.169 34.169 27 5.27 m/h 0 %

Famous Cities (61)